Portada
METAR-TAF:

METAR-TAF

Aeroports :

Aeroport de Svalbard-Longyear

Longyearbyen, Noruega

latitud: 78-15N, longitud: 015-28E, altitud: 2 m

Observació

L'informe es va fer fa 22 minuts, a les 12:20 UTC
Vent 12 kt del Oest/Sud-Oest
Temperatura 4°C
Humitat 81%
Pressió 1026 hPa
Visibilitat 10 km o més
Cel ennuvolat a una alçada de 1200 ft

METAR: ENSB 301220Z 25012KT 9999 BKN012 04/01 Q1026 RMK WIND 1400FT 25010KT

Hora: 14:42 (12:42 UTC)

Pronòstic

Pronòstic vàlid del 30 a les 12 UTC al 31 a les 12 UTC
Vent 8 kt amb direcció variable
Visibilitat 10 km o més
Escasses núvols a una alçada de 500 ft
Cel ennuvolat a una alçada de 3000 ft
Temporalment
l' 30 a les 12 UTC al 30 a les 18 UTC
Vent 12 kt del Oest/Sud-Oest
Temporalment
l' 31 a les 00 UTC al 31 a les 12 UTC
Vent 10 kt del Est/Sud-Est
Probabilitat 40%
l' 30 a les 12 UTC al 30 a les 18 UTC
Cel ennuvolat a una alçada de 800 ft

TAF: ENSB 3012/3112 VRB08KT 9999 FEW005 BKN030 TEMPO 3012/3018 24012KT TEMPO 3100/3112 12010KT PROB40 3012/3018 BKN008

Observacions i pronòstics meteorològics de més de 4000 aeroports (METAR i TAF).

Les estacions disponibles són els punts grocs i vermells al mapa.

Posi el ratolí al punt desitjat per veure el nom de l'estació.

Feu clic per veure les observacions i els pronòstics meteorològics.

Per canviar el mapa: feu clic els botons verds amb una creu de color negre per apropar; al botó verd amb un guió per allunyar la imatge; o en les fletxes verdes per a mapes adjacents.


METAR-TAF: